sensor_id;sensor_type;location;lat;lon;timestamp;pressure;altitude;pressure_sealevel;temperature;humidity
59859;BME280;45734;53.648;9.566;2022-09-06T00:01:50;102091.63;;;15.21;79.50
59859;BME280;45734;53.648;9.566;2022-09-06T00:06:51;102080.22;;;15.19;79.57
59859;BME280;45734;53.648;9.566;2022-09-06T00:11:51;102079.53;;;15.17;79.50
59859;BME280;45734;53.648;9.566;2022-09-06T00:16:51;102075.31;;;15.14;80.10
59859;BME280;45734;53.648;9.566;2022-09-06T00:21:52;102072.44;;;15.08;80.15
59859;BME280;45734;53.648;9.566;2022-09-06T00:26:52;102071.75;;;15.06;80.71
59859;BME280;45734;53.648;9.566;2022-09-06T00:31:52;102061.69;;;15.08;80.44
59859;BME280;45734;53.648;9.566;2022-09-06T00:36:53;102063.00;;;15.04;80.54
59859;BME280;45734;53.648;9.566;2022-09-06T00:41:54;102058.97;;;15.00;80.85
59859;BME280;45734;53.648;9.566;2022-09-06T00:46:54;102055.13;;;15.02;80.85
59859;BME280;45734;53.648;9.566;2022-09-06T00:52:07;102044.53;;;15.01;80.42
59859;BME280;45734;53.648;9.566;2022-09-06T00:57:09;102053.44;;;15.01;80.35
59859;BME280;45734;53.648;9.566;2022-09-06T01:02:10;102039.50;;;14.98;80.43
59859;BME280;45734;53.648;9.566;2022-09-06T01:28:51;102030.22;;;14.92;80.39
59859;BME280;45734;53.648;9.566;2022-09-06T01:39:02;102034.75;;;14.91;80.40
59859;BME280;45734;53.648;9.566;2022-09-06T01:44:03;102036.47;;;14.92;80.10
59859;BME280;45734;53.648;9.566;2022-09-06T01:49:29;102042.81;;;14.91;79.96
59859;BME280;45734;53.648;9.566;2022-09-06T02:04:46;102036.47;;;14.92;79.30
59859;BME280;45734;53.648;9.566;2022-09-06T02:09:53;102027.88;;;14.89;78.81
59859;BME280;45734;53.648;9.566;2022-09-06T02:15:04;102026.56;;;14.93;78.75
59859;BME280;45734;53.648;9.566;2022-09-06T02:20:09;102020.72;;;14.98;77.52
59859;BME280;45734;53.648;9.566;2022-09-06T02:25:17;102017.56;;;15.02;77.26
59859;BME280;45734;53.648;9.566;2022-09-06T02:30:19;102009.34;;;15.04;76.84
59859;BME280;45734;53.648;9.566;2022-09-06T02:35:20;102003.47;;;15.00;76.49
59859;BME280;45734;53.648;9.566;2022-09-06T02:40:21;102002.47;;;15.01;76.39
59859;BME280;45734;53.648;9.566;2022-09-06T02:45:21;102006.13;;;15.00;76.09
59859;BME280;45734;53.648;9.566;2022-09-06T02:50:22;101998.25;;;14.99;75.47
59859;BME280;45734;53.648;9.566;2022-09-06T02:55:22;102004.63;;;14.98;75.37
59859;BME280;45734;53.648;9.566;2022-09-06T03:00:23;101993.88;;;14.98;75.13
59859;BME280;45734;53.648;9.566;2022-09-06T03:05:25;101995.72;;;14.97;74.66
59859;BME280;45734;53.648;9.566;2022-09-06T03:10:25;102002.44;;;14.93;74.64
59859;BME280;45734;53.648;9.566;2022-09-06T03:15:26;101996.69;;;14.88;74.96
59859;BME280;45734;53.648;9.566;2022-09-06T03:20:26;101984.44;;;14.85;74.72
59859;BME280;45734;53.648;9.566;2022-09-06T03:25:26;101985.75;;;14.81;74.71
59859;BME280;45734;53.648;9.566;2022-09-06T03:30:27;101977.84;;;14.80;74.42
59859;BME280;45734;53.648;9.566;2022-09-06T03:35:27;101978.88;;;14.79;73.66
59859;BME280;45734;53.648;9.566;2022-09-06T03:40:27;101979.19;;;14.76;73.80
59859;BME280;45734;53.648;9.566;2022-09-06T03:45:28;101987.38;;;14.74;72.88
59859;BME280;45734;53.648;9.566;2022-09-06T03:50:28;101989.09;;;14.75;73.06
59859;BME280;45734;53.648;9.566;2022-09-06T03:55:28;101984.56;;;14.76;72.55
59859;BME280;45734;53.648;9.566;2022-09-06T04:00:29;101983.03;;;14.73;72.07
59859;BME280;45734;53.648;9.566;2022-09-06T04:05:29;101974.97;;;14.73;71.90
59859;BME280;45734;53.648;9.566;2022-09-06T04:10:29;101975.44;;;14.68;72.14
59859;BME280;45734;53.648;9.566;2022-09-06T04:15:29;101983.66;;;14.67;72.19
59859;BME280;45734;53.648;9.566;2022-09-06T04:20:30;101971.22;;;14.66;71.56
59859;BME280;45734;53.648;9.566;2022-09-06T04:25:30;101986.03;;;14.70;71.17
59859;BME280;45734;53.648;9.566;2022-09-06T04:30:31;101978.13;;;14.68;71.07
59859;BME280;45734;53.648;9.566;2022-09-06T04:35:31;101969.09;;;14.69;70.54
59859;BME280;45734;53.648;9.566;2022-09-06T04:40:31;101962.25;;;14.75;69.63
59859;BME280;45734;53.648;9.566;2022-09-06T04:45:32;101949.19;;;14.80;68.85
59859;BME280;45734;53.648;9.566;2022-09-06T04:50:32;101951.78;;;14.90;67.88
59859;BME280;45734;53.648;9.566;2022-09-06T04:55:33;101942.25;;;14.96;67.22
59859;BME280;45734;53.648;9.566;2022-09-06T05:00:34;101942.25;;;14.96;66.13
59859;BME280;45734;53.648;9.566;2022-09-06T05:05:35;101948.44;;;14.96;66.07
59859;BME280;45734;53.648;9.566;2022-09-06T05:10:36;101941.75;;;15.00;65.58
59859;BME280;45734;53.648;9.566;2022-09-06T05:15:36;101948.81;;;15.01;64.92
59859;BME280;45734;53.648;9.566;2022-09-06T05:20:36;101955.38;;;15.07;64.55
59859;BME280;45734;53.648;9.566;2022-09-06T05:25:37;101961.44;;;15.17;63.97
59859;BME280;45734;53.648;9.566;2022-09-06T05:30:38;101963.47;;;15.23;63.34
59859;BME280;45734;53.648;9.566;2022-09-06T05:35:40;101955.47;;;15.31;62.63
59859;BME280;45734;53.648;9.566;2022-09-06T05:40:40;101981.69;;;15.46;61.81
59859;BME280;45734;53.648;9.566;2022-09-06T05:45:41;101976.41;;;15.70;61.17
59859;BME280;45734;53.648;9.566;2022-09-06T05:50:41;101963.16;;;15.85;60.66
59859;BME280;45734;53.648;9.566;2022-09-06T05:55:41;101958.81;;;16.33;58.84
59859;BME280;45734;53.648;9.566;2022-09-06T06:00:42;101966.53;;;16.44;58.25
59859;BME280;45734;53.648;9.566;2022-09-06T06:05:46;101958.47;;;16.36;58.69
59859;BME280;45734;53.648;9.566;2022-09-06T06:10:46;101946.81;;;16.60;57.57
59859;BME280;45734;53.648;9.566;2022-09-06T06:15:46;101942.28;;;16.77;56.43
59859;BME280;45734;53.648;9.566;2022-09-06T06:20:47;101939.91;;;17.22;55.78
59859;BME280;45734;53.648;9.566;2022-09-06T06:25:47;101937.13;;;17.38;54.54
59859;BME280;45734;53.648;9.566;2022-09-06T06:30:47;101935.94;;;17.95;53.58
59859;BME280;45734;53.648;9.566;2022-09-06T06:36:02;101945.84;;;17.71;53.18
59859;BME280;45734;53.648;9.566;2022-09-06T06:41:04;101941.78;;;17.52;54.35
59859;BME280;45734;53.648;9.566;2022-09-06T06:46:13;101943.13;;;17.48;54.13
59859;BME280;45734;53.648;9.566;2022-09-06T06:51:16;101946.59;;;17.34;54.38
59859;BME280;45734;53.648;9.566;2022-09-06T06:56:24;101951.69;;;17.20;55.02
59859;BME280;45734;53.648;9.566;2022-09-06T07:01:27;101953.94;;;17.09;55.91
59859;BME280;45734;53.648;9.566;2022-09-06T07:06:28;101961.38;;;16.98;55.93
59859;BME280;45734;53.648;9.566;2022-09-06T07:11:29;101949.25;;;17.03;55.92
59859;BME280;45734;53.648;9.566;2022-09-06T07:16:29;101947.72;;;17.08;55.68
59859;BME280;45734;53.648;9.566;2022-09-06T07:21:30;101959.47;;;17.15;55.61
59859;BME280;45734;53.648;9.566;2022-09-06T07:26:30;101955.25;;;17.13;55.91
59859;BME280;45734;53.648;9.566;2022-09-06T07:31:31;101955.06;;;17.23;55.43
59859;BME280;45734;53.648;9.566;2022-09-06T07:36:31;101954.03;;;17.24;56.03
59859;BME280;45734;53.648;9.566;2022-09-06T07:41:32;101951.72;;;17.12;55.91
59859;BME280;45734;53.648;9.566;2022-09-06T07:46:32;101958.13;;;17.11;56.72
59859;BME280;45734;53.648;9.566;2022-09-06T07:51:32;101962.00;;;17.17;57.21
59859;BME280;45734;53.648;9.566;2022-09-06T07:56:33;101970.91;;;17.17;56.88
59859;BME280;45734;53.648;9.566;2022-09-06T08:01:35;101966.22;;;17.11;56.47
59859;BME280;45734;53.648;9.566;2022-09-06T08:06:37;101971.13;;;17.08;57.37
59859;BME280;45734;53.648;9.566;2022-09-06T08:11:38;101961.34;;;17.07;57.84
59859;BME280;45734;53.648;9.566;2022-09-06T08:16:39;101966.88;;;17.13;57.40
59859;BME280;45734;53.648;9.566;2022-09-06T08:21:39;101973.59;;;17.17;58.08
59859;BME280;45734;53.648;9.566;2022-09-06T08:26:39;101974.78;;;17.15;58.35
59859;BME280;45734;53.648;9.566;2022-09-06T08:31:43;101973.59;;;17.17;58.62
59859;BME280;45734;53.648;9.566;2022-09-06T08:36:43;101988.72;;;17.18;59.57
59859;BME280;45734;53.648;9.566;2022-09-06T08:41:55;101986.34;;;17.24;59.17
59859;BME280;45734;53.648;9.566;2022-09-06T08:46:59;101989.06;;;17.15;58.73
59859;BME280;45734;53.648;9.566;2022-09-06T08:52:24;101978.97;;;17.17;59.21
59859;BME280;45734;53.648;9.566;2022-09-06T09:03:17;101969.59;;;17.13;58.79
59859;BME280;45734;53.648;9.566;2022-09-06T09:18:52;101972.16;;;17.38;58.71
59859;BME280;45734;53.648;9.566;2022-09-06T09:23:55;101977.16;;;17.49;59.39
59859;BME280;45734;53.648;9.566;2022-09-06T09:29:11;101959.38;;;17.63;59.09
59859;BME280;45734;53.648;9.566;2022-09-06T09:34:14;101946.41;;;17.67;59.16
59859;BME280;45734;53.648;9.566;2022-09-06T09:39:34;101949.19;;;17.73;58.79
59859;BME280;45734;53.648;9.566;2022-09-06T09:44:41;101951.44;;;17.70;59.25
59859;BME280;45734;53.648;9.566;2022-09-06T09:49:42;101947.69;;;17.71;60.12
59859;BME280;45734;53.648;9.566;2022-09-06T09:54:44;101941.53;;;17.62;59.72
59859;BME280;45734;53.648;9.566;2022-09-06T09:59:50;101922.50;;;17.63;60.51
59859;BME280;45734;53.648;9.566;2022-09-06T10:04:59;101912.56;;;17.64;60.22
59859;BME280;45734;53.648;9.566;2022-09-06T10:10:02;101926.56;;;17.59;60.53
59859;BME280;45734;53.648;9.566;2022-09-06T10:15:06;101909.56;;;17.59;61.45
59859;BME280;45734;53.648;9.566;2022-09-06T10:20:09;101918.47;;;17.59;61.87
59859;BME280;45734;53.648;9.566;2022-09-06T10:30:35;101911.84;;;17.70;62.60
59859;BME280;45734;53.648;9.566;2022-09-06T10:35:39;101910.97;;;17.78;61.77
59859;BME280;45734;53.648;9.566;2022-09-06T10:46:01;101910.66;;;17.96;62.41
59859;BME280;45734;53.648;9.566;2022-09-06T10:56:28;101916.09;;;18.10;62.83
59859;BME280;45734;53.648;9.566;2022-09-06T11:01:40;101914.69;;;18.15;62.87
59859;BME280;45734;53.648;9.566;2022-09-06T11:06:48;101920.38;;;18.20;62.22
59859;BME280;45734;53.648;9.566;2022-09-06T11:12:07;101924.94;;;18.19;61.66
59859;BME280;45734;53.648;9.566;2022-09-06T11:27:55;101924.22;;;18.40;62.32
59859;BME280;45734;53.648;9.566;2022-09-06T11:38:25;101923.31;;;18.33;65.37
59859;BME280;45734;53.648;9.566;2022-09-06T11:43:47;101917.69;;;18.20;64.71
59859;BME280;45734;53.648;9.566;2022-09-06T11:49:05;101910.84;;;17.94;66.61
59859;BME280;45734;53.648;9.566;2022-09-06T11:54:19;101898.44;;;17.85;69.41
59859;BME280;45734;53.648;9.566;2022-09-06T11:59:48;101886.75;;;17.70;69.58
59859;BME280;45734;53.648;9.566;2022-09-06T12:10:00;101878.38;;;17.64;68.22
59859;BME280;45734;53.648;9.566;2022-09-06T12:15:24;101879.72;;;17.69;67.68
59859;BME280;45734;53.648;9.566;2022-09-06T12:25:51;101861.13;;;17.74;67.98
59859;BME280;45734;53.648;9.566;2022-09-06T12:30:52;101873.09;;;17.71;67.65
59859;BME280;45734;53.648;9.566;2022-09-06T12:35:52;101861.31;;;17.72;66.50
59859;BME280;45734;53.648;9.566;2022-09-06T12:40:53;101853.00;;;17.82;66.45
59859;BME280;45734;53.648;9.566;2022-09-06T12:45:58;101854.78;;;17.90;66.10
59859;BME280;45734;53.648;9.566;2022-09-06T12:56:07;101848.09;;;18.00;64.88
59859;BME280;45734;53.648;9.566;2022-09-06T13:01:21;101845.91;;;18.04;64.95
59859;BME280;45734;53.648;9.566;2022-09-06T13:06:25;101854.09;;;18.10;64.70
59859;BME280;45734;53.648;9.566;2022-09-06T13:11:52;101846.38;;;18.07;64.53
59859;BME280;45734;53.648;9.566;2022-09-06T13:16:55;101842.84;;;18.07;64.54
59859;BME280;45734;53.648;9.566;2022-09-06T13:21:59;101842.63;;;18.08;64.55
59859;BME280;45734;53.648;9.566;2022-09-06T13:27:00;101833.72;;;18.08;64.66
59859;BME280;45734;53.648;9.566;2022-09-06T13:32:20;101808.16;;;18.04;64.83
59859;BME280;45734;53.648;9.566;2022-09-06T13:37:24;101819.41;;;18.07;65.07
59859;BME280;45734;53.648;9.566;2022-09-06T13:42:30;101803.69;;;18.11;65.45
59859;BME280;45734;53.648;9.566;2022-09-06T13:47:32;101802.13;;;18.17;64.79
59859;BME280;45734;53.648;9.566;2022-09-06T13:52:32;101805.28;;;18.20;64.90
59859;BME280;45734;53.648;9.566;2022-09-06T13:57:32;101810.19;;;18.31;64.54
59859;BME280;45734;53.648;9.566;2022-09-06T14:02:33;101819.41;;;18.37;64.39
59859;BME280;45734;53.648;9.566;2022-09-06T14:07:33;101808.63;;;18.37;64.36
59859;BME280;45734;53.648;9.566;2022-09-06T14:12:33;101809.44;;;18.38;63.78
59859;BME280;45734;53.648;9.566;2022-09-06T14:17:34;101803.59;;;18.34;63.72
59859;BME280;45734;53.648;9.566;2022-09-06T14:22:34;101797.00;;;18.37;64.25
59859;BME280;45734;53.648;9.566;2022-09-06T14:27:35;101796.53;;;18.33;64.20
59859;BME280;45734;53.648;9.566;2022-09-06T14:32:35;101797.38;;;18.33;64.57
59859;BME280;45734;53.648;9.566;2022-09-06T14:37:36;101786.97;;;18.30;65.34
59859;BME280;45734;53.648;9.566;2022-09-06T14:42:36;101791.97;;;18.33;65.48
59859;BME280;45734;53.648;9.566;2022-09-06T14:47:37;101783.69;;;18.35;66.40
59859;BME280;45734;53.648;9.566;2022-09-06T14:52:37;101773.75;;;18.36;65.74
59859;BME280;45734;53.648;9.566;2022-09-06T14:57:37;101771.78;;;18.44;65.13
59859;BME280;45734;53.648;9.566;2022-09-06T15:02:38;101767.38;;;18.58;64.62
59859;BME280;45734;53.648;9.566;2022-09-06T15:07:38;101771.28;;;18.70;64.43
59859;BME280;45734;53.648;9.566;2022-09-06T15:12:38;101762.66;;;18.96;64.16
59859;BME280;45734;53.648;9.566;2022-09-06T15:17:39;101755.75;;;19.37;62.81
59859;BME280;45734;53.648;9.566;2022-09-06T15:22:39;101751.13;;;19.80;61.46
59859;BME280;45734;53.648;9.566;2022-09-06T15:27:39;101751.28;;;20.07;59.00
59859;BME280;45734;53.648;9.566;2022-09-06T15:32:40;101745.69;;;20.08;58.13
59859;BME280;45734;53.648;9.566;2022-09-06T15:37:41;101747.44;;;20.23;58.02
59859;BME280;45734;53.648;9.566;2022-09-06T15:42:42;101742.28;;;20.28;58.07
59859;BME280;45734;53.648;9.566;2022-09-06T15:47:42;101732.25;;;20.22;58.31
59859;BME280;45734;53.648;9.566;2022-09-06T15:52:42;101736.19;;;20.19;58.11
59859;BME280;45734;53.648;9.566;2022-09-06T15:57:43;101741.13;;;20.09;58.14
59859;BME280;45734;53.648;9.566;2022-09-06T16:02:43;101721.75;;;19.99;58.55
59859;BME280;45734;53.648;9.566;2022-09-06T16:07:43;101714.03;;;19.96;58.97
59859;BME280;45734;53.648;9.566;2022-09-06T16:12:44;101694.84;;;19.90;58.92
59859;BME280;45734;53.648;9.566;2022-09-06T16:17:44;101687.16;;;19.87;59.25
59859;BME280;45734;53.648;9.566;2022-09-06T16:22:48;101686.31;;;19.87;59.63
59859;BME280;45734;53.648;9.566;2022-09-06T16:27:48;101681.31;;;19.84;59.30
59859;BME280;45734;53.648;9.566;2022-09-06T16:32:48;101688.75;;;19.75;59.67
59859;BME280;45734;53.648;9.566;2022-09-06T16:37:49;101698.28;;;19.71;60.53
59859;BME280;45734;53.648;9.566;2022-09-06T16:42:49;101671.56;;;19.61;61.02
59859;BME280;45734;53.648;9.566;2022-09-06T16:47:50;101680.25;;;19.57;61.50
59859;BME280;45734;53.648;9.566;2022-09-06T16:52:50;101682.72;;;19.52;61.26
59859;BME280;45734;53.648;9.566;2022-09-06T16:57:51;101672.53;;;19.47;61.44
59859;BME280;45734;53.648;9.566;2022-09-06T17:02:52;101670.78;;;19.39;61.35
59859;BME280;45734;53.648;9.566;2022-09-06T17:07:52;101662.22;;;19.29;61.93
59859;BME280;45734;53.648;9.566;2022-09-06T17:12:52;101657.91;;;19.13;62.40
59859;BME280;45734;53.648;9.566;2022-09-06T17:17:53;101661.78;;;19.04;62.87
59859;BME280;45734;53.648;9.566;2022-09-06T17:22:53;101663.31;;;18.85;63.58
59859;BME280;45734;53.648;9.566;2022-09-06T17:28:00;101640.06;;;18.69;64.10
59859;BME280;45734;53.648;9.566;2022-09-06T17:33:00;101642.16;;;18.52;64.56
59859;BME280;45734;53.648;9.566;2022-09-06T17:38:01;101641.41;;;18.37;64.99
59859;BME280;45734;53.648;9.566;2022-09-06T17:43:01;101647.66;;;18.23;65.35
59859;BME280;45734;53.648;9.566;2022-09-06T17:48:03;101646.22;;;18.05;65.91
59859;BME280;45734;53.648;9.566;2022-09-06T17:53:04;101664.25;;;17.90;66.80
59859;BME280;45734;53.648;9.566;2022-09-06T17:58:04;101671.16;;;17.78;67.50
59859;BME280;45734;53.648;9.566;2022-09-06T18:03:06;101665.25;;;17.59;67.58
59859;BME280;45734;53.648;9.566;2022-09-06T18:08:07;101659.59;;;17.39;68.63
59859;BME280;45734;53.648;9.566;2022-09-06T18:13:07;101652.56;;;17.15;69.17
59859;BME280;45734;53.648;9.566;2022-09-06T18:18:07;101665.81;;;17.02;69.96
59859;BME280;45734;53.648;9.566;2022-09-06T18:23:07;101653.91;;;16.73;69.81
59859;BME280;45734;53.648;9.566;2022-09-06T18:28:08;101666.81;;;16.55;70.95
59859;BME280;45734;53.648;9.566;2022-09-06T18:33:08;101668.25;;;16.35;71.42
59859;BME280;45734;53.648;9.566;2022-09-06T18:38:12;101681.47;;;16.13;73.29
59859;BME280;45734;53.648;9.566;2022-09-06T18:43:12;101679.88;;;15.88;75.05
59859;BME280;45734;53.648;9.566;2022-09-06T18:48:13;101689.50;;;15.66;76.29
59859;BME280;45734;53.648;9.566;2022-09-06T18:53:14;101697.09;;;15.46;76.42
59859;BME280;45734;53.648;9.566;2022-09-06T18:58:17;101688.38;;;15.35;77.10
59859;BME280;45734;53.648;9.566;2022-09-06T19:03:17;101693.41;;;15.22;78.36
59859;BME280;45734;53.648;9.566;2022-09-06T19:08:17;101696.59;;;15.09;78.93
59859;BME280;45734;53.648;9.566;2022-09-06T19:13:18;101700.78;;;15.04;79.12
59859;BME280;45734;53.648;9.566;2022-09-06T19:18:18;101701.78;;;14.94;79.08
59859;BME280;45734;53.648;9.566;2022-09-06T19:23:19;101702.63;;;14.87;79.72
59859;BME280;45734;53.648;9.566;2022-09-06T19:28:21;101697.25;;;14.79;80.83
59859;BME280;45734;53.648;9.566;2022-09-06T19:33:22;101687.00;;;14.58;82.45
59859;BME280;45734;53.648;9.566;2022-09-06T19:38:22;101684.41;;;14.40;83.93
59859;BME280;45734;53.648;9.566;2022-09-06T19:43:23;101677.34;;;14.22;85.92
59859;BME280;45734;53.648;9.566;2022-09-06T19:48:23;101674.56;;;14.06;88.65
59859;BME280;45734;53.648;9.566;2022-09-06T19:53:24;101667.28;;;13.90;91.04
59859;BME280;45734;53.648;9.566;2022-09-06T19:58:25;101676.16;;;13.82;90.87
59859;BME280;45734;53.648;9.566;2022-09-06T20:03:25;101679.63;;;13.75;91.13
59859;BME280;45734;53.648;9.566;2022-09-06T20:08:26;101672.59;;;13.74;91.13
59859;BME280;45734;53.648;9.566;2022-09-06T20:13:27;101669.59;;;13.77;91.43
59859;BME280;45734;53.648;9.566;2022-09-06T20:18:28;101663.34;;;13.68;91.39
59859;BME280;45734;53.648;9.566;2022-09-06T20:23:29;101670.31;;;13.61;90.88
59859;BME280;45734;53.648;9.566;2022-09-06T20:28:30;101665.41;;;13.48;92.04
59859;BME280;45734;53.648;9.566;2022-09-06T20:33:32;101662.16;;;13.36;92.37
59859;BME280;45734;53.648;9.566;2022-09-06T20:38:36;101659.59;;;13.27;91.33
59859;BME280;45734;53.648;9.566;2022-09-06T20:43:38;101656.81;;;13.19;92.09
59859;BME280;45734;53.648;9.566;2022-09-06T20:48:39;101652.09;;;13.12;93.26
59859;BME280;45734;53.648;9.566;2022-09-06T20:53:40;101650.72;;;13.08;94.00
59859;BME280;45734;53.648;9.566;2022-09-06T20:58:41;101644.00;;;13.04;94.23
59859;BME280;45734;53.648;9.566;2022-09-06T21:03:41;101639.41;;;12.97;94.36
59859;BME280;45734;53.648;9.566;2022-09-06T21:08:42;101622.16;;;12.91;94.45
59859;BME280;45734;53.648;9.566;2022-09-06T21:13:47;101623.78;;;12.84;95.37
59859;BME280;45734;53.648;9.566;2022-09-06T21:18:58;101608.50;;;12.76;94.66
59859;BME280;45734;53.648;9.566;2022-09-06T21:24:00;101601.63;;;12.74;95.01
59859;BME280;45734;53.648;9.566;2022-09-06T21:29:02;101605.00;;;12.76;96.92
59859;BME280;45734;53.648;9.566;2022-09-06T21:34:05;101598.06;;;12.83;98.43
59859;BME280;45734;53.648;9.566;2022-09-06T21:39:08;101589.09;;;12.92;99.03
59859;BME280;45734;53.648;9.566;2022-09-06T21:44:09;101590.00;;;13.01;99.57
59859;BME280;45734;53.648;9.566;2022-09-06T21:49:11;101592.72;;;13.09;100.00
59859;BME280;45734;53.648;9.566;2022-09-06T21:54:12;101582.88;;;13.18;100.00
59859;BME280;45734;53.648;9.566;2022-09-06T21:59:12;101592.53;;;13.28;100.00
59859;BME280;45734;53.648;9.566;2022-09-06T22:04:12;101581.88;;;13.36;99.36
59859;BME280;45734;53.648;9.566;2022-09-06T22:09:13;101577.00;;;13.32;99.01
59859;BME280;45734;53.648;9.566;2022-09-06T22:14:13;101562.41;;;13.26;99.78
59859;BME280;45734;53.648;9.566;2022-09-06T22:19:14;101549.41;;;13.31;99.78
59859;BME280;45734;53.648;9.566;2022-09-06T22:24:14;101552.13;;;13.40;99.85
59859;BME280;45734;53.648;9.566;2022-09-06T22:29:15;101542.47;;;13.47;99.71
59859;BME280;45734;53.648;9.566;2022-09-06T22:34:15;101545.06;;;13.65;98.83
59859;BME280;45734;53.648;9.566;2022-09-06T22:39:16;101553.44;;;13.78;97.93
59859;BME280;45734;53.648;9.566;2022-09-06T22:44:16;101551.78;;;13.77;97.41
59859;BME280;45734;53.648;9.566;2022-09-06T22:49:17;101564.81;;;13.72;97.49
59859;BME280;45734;53.648;9.566;2022-09-06T22:54:18;101549.38;;;13.66;97.06
59859;BME280;45734;53.648;9.566;2022-09-06T22:59:18;101540.97;;;13.52;96.83
59859;BME280;45734;53.648;9.566;2022-09-06T23:04:19;101535.19;;;13.31;97.21
59859;BME280;45734;53.648;9.566;2022-09-06T23:09:19;101530.72;;;13.13;98.10
59859;BME280;45734;53.648;9.566;2022-09-06T23:14:19;101547.34;;;12.99;100.00
59859;BME280;45734;53.648;9.566;2022-09-06T23:19:19;101535.75;;;12.90;100.00
59859;BME280;45734;53.648;9.566;2022-09-06T23:24:20;101540.59;;;12.87;100.00
59859;BME280;45734;53.648;9.566;2022-09-06T23:29:20;101530.53;;;12.81;100.00
59859;BME280;45734;53.648;9.566;2022-09-06T23:34:21;101524.41;;;12.71;100.00
59859;BME280;45734;53.648;9.566;2022-09-06T23:39:21;101533.59;;;12.68;100.00
59859;BME280;45734;53.648;9.566;2022-09-06T23:44:22;101519.06;;;12.71;100.00
59859;BME280;45734;53.648;9.566;2022-09-06T23:49:22;101526.25;;;12.70;100.00
59859;BME280;45734;53.648;9.566;2022-09-06T23:54:23;101539.09;;;12.66;100.00
59859;BME280;45734;53.648;9.566;2022-09-06T23:59:23;101519.38;;;12.67;100.00
